sensor_id;sensor_type;location;lat;lon;timestamp;temperature;humidity
77693;SHT31;66984;47.404;18.836;2024-03-29T00:00:19;9.80;74.00
77693;SHT31;66984;47.404;18.836;2024-03-29T00:01:20;9.78;74.48
77693;SHT31;66984;47.404;18.836;2024-03-29T00:02:20;9.80;74.41
77693;SHT31;66984;47.404;18.836;2024-03-29T00:03:22;9.80;74.14
77693;SHT31;66984;47.404;18.836;2024-03-29T00:04:22;9.78;73.90
77693;SHT31;66984;47.404;18.836;2024-03-29T00:05:23;9.80;73.64
77693;SHT31;66984;47.404;18.836;2024-03-29T00:06:24;9.81;73.54
77693;SHT31;66984;47.404;18.836;2024-03-29T00:07:24;9.81;73.70
77693;SHT31;66984;47.404;18.836;2024-03-29T00:08:28;9.81;73.66
77693;SHT31;66984;47.404;18.836;2024-03-29T00:09:29;9.83;73.59
77693;SHT31;66984;47.404;18.836;2024-03-29T00:10:30;9.86;73.58
77693;SHT31;66984;47.404;18.836;2024-03-29T00:11:31;9.81;72.89
77693;SHT31;66984;47.404;18.836;2024-03-29T00:12:32;9.86;72.85
77693;SHT31;66984;47.404;18.836;2024-03-29T00:13:32;9.90;72.79
77693;SHT31;66984;47.404;18.836;2024-03-29T00:14:33;9.88;73.02
77693;SHT31;66984;47.404;18.836;2024-03-29T00:15:34;9.90;72.53
77693;SHT31;66984;47.404;18.836;2024-03-29T00:16:35;9.90;72.57
77693;SHT31;66984;47.404;18.836;2024-03-29T00:17:35;9.91;72.47
77693;SHT31;66984;47.404;18.836;2024-03-29T00:18:36;9.94;72.43
77693;SHT31;66984;47.404;18.836;2024-03-29T00:19:37;9.90;71.91
77693;SHT31;66984;47.404;18.836;2024-03-29T00:20:37;9.88;71.27
77693;SHT31;66984;47.404;18.836;2024-03-29T00:21:38;9.86;70.97
77693;SHT31;66984;47.404;18.836;2024-03-29T00:22:39;9.86;71.32
77693;SHT31;66984;47.404;18.836;2024-03-29T00:23:40;9.87;71.19
77693;SHT31;66984;47.404;18.836;2024-03-29T00:24:41;9.91;71.25
77693;SHT31;66984;47.404;18.836;2024-03-29T00:25:41;9.94;71.13
77693;SHT31;66984;47.404;18.836;2024-03-29T00:26:42;9.95;71.38
77693;SHT31;66984;47.404;18.836;2024-03-29T00:27:43;9.94;70.82
77693;SHT31;66984;47.404;18.836;2024-03-29T00:28:44;9.93;70.84
77693;SHT31;66984;47.404;18.836;2024-03-29T00:29:45;9.93;70.99
77693;SHT31;66984;47.404;18.836;2024-03-29T00:30:48;9.91;70.58
77693;SHT31;66984;47.404;18.836;2024-03-29T00:31:55;9.90;70.49
77693;SHT31;66984;47.404;18.836;2024-03-29T00:32:59;9.94;70.55
77693;SHT31;66984;47.404;18.836;2024-03-29T00:34:00;9.95;71.10
77693;SHT31;66984;47.404;18.836;2024-03-29T00:35:01;9.97;71.10
77693;SHT31;66984;47.404;18.836;2024-03-29T00:36:02;10.02;71.07
77693;SHT31;66984;47.404;18.836;2024-03-29T00:37:03;10.04;71.07
77693;SHT31;66984;47.404;18.836;2024-03-29T00:38:04;10.04;71.00
77693;SHT31;66984;47.404;18.836;2024-03-29T00:39:05;10.09;71.05
77693;SHT31;66984;47.404;18.836;2024-03-29T00:40:06;10.09;71.17
77693;SHT31;66984;47.404;18.836;2024-03-29T00:41:07;10.14;70.88
77693;SHT31;66984;47.404;18.836;2024-03-29T00:42:08;10.14;72.02
77693;SHT31;66984;47.404;18.836;2024-03-29T00:43:09;10.18;71.94
77693;SHT31;66984;47.404;18.836;2024-03-29T00:44:10;10.24;71.83
77693;SHT31;66984;47.404;18.836;2024-03-29T00:45:11;10.25;71.49
77693;SHT31;66984;47.404;18.836;2024-03-29T00:46:12;10.25;71.24
77693;SHT31;66984;47.404;18.836;2024-03-29T00:47:12;10.25;71.00
77693;SHT31;66984;47.404;18.836;2024-03-29T00:48:17;10.24;70.70
77693;SHT31;66984;47.404;18.836;2024-03-29T00:49:20;10.28;70.99
77693;SHT31;66984;47.404;18.836;2024-03-29T00:50:21;10.29;71.06
77693;SHT31;66984;47.404;18.836;2024-03-29T00:51:21;10.28;70.85
77693;SHT31;66984;47.404;18.836;2024-03-29T00:52:22;10.31;71.08
77693;SHT31;66984;47.404;18.836;2024-03-29T00:53:23;10.34;71.20
77693;SHT31;66984;47.404;18.836;2024-03-29T00:54:23;10.35;71.35
77693;SHT31;66984;47.404;18.836;2024-03-29T00:55:24;10.38;71.37
77693;SHT31;66984;47.404;18.836;2024-03-29T00:56:25;10.39;71.12
77693;SHT31;66984;47.404;18.836;2024-03-29T00:57:26;10.38;71.00
77693;SHT31;66984;47.404;18.836;2024-03-29T00:58:26;10.36;70.79
77693;SHT31;66984;47.404;18.836;2024-03-29T00:59:28;10.41;70.94
77693;SHT31;66984;47.404;18.836;2024-03-29T01:00:29;10.38;70.62
77693;SHT31;66984;47.404;18.836;2024-03-29T01:01:29;10.38;71.13
77693;SHT31;66984;47.404;18.836;2024-03-29T01:02:30;10.39;71.35
77693;SHT31;66984;47.404;18.836;2024-03-29T01:03:31;10.39;71.50
77693;SHT31;66984;47.404;18.836;2024-03-29T01:04:32;10.41;71.00
77693;SHT31;66984;47.404;18.836;2024-03-29T01:05:33;10.38;70.12
77693;SHT31;66984;47.404;18.836;2024-03-29T01:06:33;10.35;69.89
77693;SHT31;66984;47.404;18.836;2024-03-29T01:07:34;10.35;69.97
77693;SHT31;66984;47.404;18.836;2024-03-29T01:08:35;10.36;69.68
77693;SHT31;66984;47.404;18.836;2024-03-29T01:09:36;10.36;69.34
77693;SHT31;66984;47.404;18.836;2024-03-29T01:10:36;10.34;69.21
77693;SHT31;66984;47.404;18.836;2024-03-29T01:11:38;10.34;69.18
77693;SHT31;66984;47.404;18.836;2024-03-29T01:12:39;10.35;69.12
77693;SHT31;66984;47.404;18.836;2024-03-29T01:13:40;10.32;69.06
77693;SHT31;66984;47.404;18.836;2024-03-29T01:14:40;10.32;69.13
77693;SHT31;66984;47.404;18.836;2024-03-29T01:15:41;10.32;69.36
77693;SHT31;66984;47.404;18.836;2024-03-29T01:16:42;10.32;69.68
77693;SHT31;66984;47.404;18.836;2024-03-29T01:17:43;10.32;69.86
77693;SHT31;66984;47.404;18.836;2024-03-29T01:18:43;10.32;69.98
77693;SHT31;66984;47.404;18.836;2024-03-29T01:19:44;10.29;69.63
77693;SHT31;66984;47.404;18.836;2024-03-29T01:20:45;10.31;69.09
77693;SHT31;66984;47.404;18.836;2024-03-29T01:21:45;10.32;68.78
77693;SHT31;66984;47.404;18.836;2024-03-29T01:22:46;10.28;69.06
77693;SHT31;66984;47.404;18.836;2024-03-29T01:23:47;10.25;68.93
77693;SHT31;66984;47.404;18.836;2024-03-29T01:24:49;10.21;69.22
77693;SHT31;66984;47.404;18.836;2024-03-29T01:25:50;10.22;69.16
77693;SHT31;66984;47.404;18.836;2024-03-29T01:26:51;10.15;68.78
77693;SHT31;66984;47.404;18.836;2024-03-29T01:27:52;10.15;68.60
77693;SHT31;66984;47.404;18.836;2024-03-29T01:28:53;10.11;68.56
77693;SHT31;66984;47.404;18.836;2024-03-29T01:29:54;10.08;69.24
77693;SHT31;66984;47.404;18.836;2024-03-29T01:30:55;9.99;68.89
77693;SHT31;66984;47.404;18.836;2024-03-29T01:31:55;9.97;68.93
77693;SHT31;66984;47.404;18.836;2024-03-29T01:32:56;9.94;68.91
77693;SHT31;66984;47.404;18.836;2024-03-29T01:33:57;9.84;68.63
77693;SHT31;66984;47.404;18.836;2024-03-29T01:34:59;9.81;68.77
77693;SHT31;66984;47.404;18.836;2024-03-29T01:35:59;9.76;68.99
77693;SHT31;66984;47.404;18.836;2024-03-29T01:37:00;9.74;69.08
77693;SHT31;66984;47.404;18.836;2024-03-29T01:38:01;9.70;68.98
77693;SHT31;66984;47.404;18.836;2024-03-29T01:39:02;9.66;69.94
77693;SHT31;66984;47.404;18.836;2024-03-29T01:40:03;9.61;69.23
77693;SHT31;66984;47.404;18.836;2024-03-29T01:41:03;9.57;69.35
77693;SHT31;66984;47.404;18.836;2024-03-29T01:42:04;9.56;70.42
77693;SHT31;66984;47.404;18.836;2024-03-29T01:43:05;9.51;69.21
77693;SHT31;66984;47.404;18.836;2024-03-29T01:44:09;9.49;69.37
77693;SHT31;66984;47.404;18.836;2024-03-29T01:45:10;9.44;69.18
77693;SHT31;66984;47.404;18.836;2024-03-29T01:46:11;9.43;69.49
77693;SHT31;66984;47.404;18.836;2024-03-29T01:47:12;9.40;69.50
77693;SHT31;66984;47.404;18.836;2024-03-29T01:48:16;9.37;69.50
77693;SHT31;66984;47.404;18.836;2024-03-29T01:49:18;9.36;69.31
77693;SHT31;66984;47.404;18.836;2024-03-29T01:50:18;9.32;69.10
77693;SHT31;66984;47.404;18.836;2024-03-29T01:51:21;9.26;69.07
77693;SHT31;66984;47.404;18.836;2024-03-29T01:52:27;9.26;70.00
77693;SHT31;66984;47.404;18.836;2024-03-29T01:53:29;9.20;69.67
77693;SHT31;66984;47.404;18.836;2024-03-29T01:54:30;9.18;68.88
77693;SHT31;66984;47.404;18.836;2024-03-29T01:55:31;9.12;69.10
77693;SHT31;66984;47.404;18.836;2024-03-29T01:56:32;9.12;69.50
77693;SHT31;66984;47.404;18.836;2024-03-29T01:57:33;9.08;69.68
77693;SHT31;66984;47.404;18.836;2024-03-29T01:58:34;9.07;69.96
77693;SHT31;66984;47.404;18.836;2024-03-29T01:59:35;9.01;70.27
77693;SHT31;66984;47.404;18.836;2024-03-29T02:00:54;8.88;69.80
77693;SHT31;66984;47.404;18.836;2024-03-29T02:01:55;8.79;69.35
77693;SHT31;66984;47.404;18.836;2024-03-29T02:02:56;8.74;69.58
77693;SHT31;66984;47.404;18.836;2024-03-29T02:03:57;8.70;69.72
77693;SHT31;66984;47.404;18.836;2024-03-29T02:04:58;8.70;69.74
77693;SHT31;66984;47.404;18.836;2024-03-29T02:05:59;8.65;70.11
77693;SHT31;66984;47.404;18.836;2024-03-29T02:07:02;8.63;70.31
77693;SHT31;66984;47.404;18.836;2024-03-29T02:08:04;8.61;70.45
77693;SHT31;66984;47.404;18.836;2024-03-29T02:09:05;8.53;70.52
77693;SHT31;66984;47.404;18.836;2024-03-29T02:10:06;8.53;71.64
77693;SHT31;66984;47.404;18.836;2024-03-29T02:11:11;8.54;72.05
77693;SHT31;66984;47.404;18.836;2024-03-29T02:12:11;8.53;71.86
77693;SHT31;66984;47.404;18.836;2024-03-29T02:13:12;8.54;71.36
77693;SHT31;66984;47.404;18.836;2024-03-29T02:14:13;8.51;70.70
77693;SHT31;66984;47.404;18.836;2024-03-29T02:15:15;8.43;70.54
77693;SHT31;66984;47.404;18.836;2024-03-29T02:16:17;8.41;70.88
77693;SHT31;66984;47.404;18.836;2024-03-29T02:17:17;8.44;70.63
77693;SHT31;66984;47.404;18.836;2024-03-29T02:18:18;8.39;70.12
77693;SHT31;66984;47.404;18.836;2024-03-29T02:19:19;8.40;70.81
77693;SHT31;66984;47.404;18.836;2024-03-29T02:20:20;8.39;70.93
77693;SHT31;66984;47.404;18.836;2024-03-29T02:21:21;8.37;70.35
77693;SHT31;66984;47.404;18.836;2024-03-29T02:22:22;8.36;70.09
77693;SHT31;66984;47.404;18.836;2024-03-29T02:23:26;8.37;70.21
77693;SHT31;66984;47.404;18.836;2024-03-29T02:24:28;8.34;70.23
77693;SHT31;66984;47.404;18.836;2024-03-29T02:25:29;8.30;70.07
77693;SHT31;66984;47.404;18.836;2024-03-29T02:26:30;8.32;70.61
77693;SHT31;66984;47.404;18.836;2024-03-29T02:27:33;8.28;70.95
77693;SHT31;66984;47.404;18.836;2024-03-29T02:28:34;8.25;71.39
77693;SHT31;66984;47.404;18.836;2024-03-29T02:29:35;8.26;71.34
77693;SHT31;66984;47.404;18.836;2024-03-29T02:30:36;8.20;71.46
77693;SHT31;66984;47.404;18.836;2024-03-29T02:31:37;8.20;72.35
77693;SHT31;66984;47.404;18.836;2024-03-29T02:32:38;8.19;72.03
77693;SHT31;66984;47.404;18.836;2024-03-29T02:33:38;8.17;72.18
77693;SHT31;66984;47.404;18.836;2024-03-29T02:34:39;8.14;71.87
77693;SHT31;66984;47.404;18.836;2024-03-29T02:35:40;8.16;71.68
77693;SHT31;66984;47.404;18.836;2024-03-29T02:36:41;8.14;71.60
77693;SHT31;66984;47.404;18.836;2024-03-29T02:37:44;8.20;71.79
77693;SHT31;66984;47.404;18.836;2024-03-29T02:38:45;8.19;71.90
77693;SHT31;66984;47.404;18.836;2024-03-29T02:39:45;8.20;72.61
77693;SHT31;66984;47.404;18.836;2024-03-29T02:40:46;8.20;72.86
77693;SHT31;66984;47.404;18.836;2024-03-29T02:41:47;8.19;72.44
77693;SHT31;66984;47.404;18.836;2024-03-29T02:42:49;8.16;72.17
77693;SHT31;66984;47.404;18.836;2024-03-29T02:43:50;8.16;72.36
77693;SHT31;66984;47.404;18.836;2024-03-29T02:44:50;8.16;72.20
77693;SHT31;66984;47.404;18.836;2024-03-29T02:45:51;8.16;72.38
77693;SHT31;66984;47.404;18.836;2024-03-29T02:46:52;8.19;72.22
77693;SHT31;66984;47.404;18.836;2024-03-29T02:47:52;8.16;71.76
77693;SHT31;66984;47.404;18.836;2024-03-29T02:48:53;8.17;71.51
77693;SHT31;66984;47.404;18.836;2024-03-29T02:49:54;8.17;71.79
77693;SHT31;66984;47.404;18.836;2024-03-29T02:50:55;8.16;71.96
77693;SHT31;66984;47.404;18.836;2024-03-29T02:51:56;8.13;71.87
77693;SHT31;66984;47.404;18.836;2024-03-29T02:52:56;8.19;72.16
77693;SHT31;66984;47.404;18.836;2024-03-29T02:53:57;8.13;72.42
77693;SHT31;66984;47.404;18.836;2024-03-29T02:54:58;8.13;72.22
77693;SHT31;66984;47.404;18.836;2024-03-29T02:55:59;8.16;72.16
77693;SHT31;66984;47.404;18.836;2024-03-29T02:56:59;8.14;72.15
77693;SHT31;66984;47.404;18.836;2024-03-29T02:58:01;8.16;72.20
77693;SHT31;66984;47.404;18.836;2024-03-29T02:59:02;8.13;72.31
77693;SHT31;66984;47.404;18.836;2024-03-29T03:00:05;8.17;72.57
77693;SHT31;66984;47.404;18.836;2024-03-29T03:01:07;8.13;72.33
77693;SHT31;66984;47.404;18.836;2024-03-29T03:02:08;8.17;72.29
77693;SHT31;66984;47.404;18.836;2024-03-29T03:03:09;8.19;72.63
77693;SHT31;66984;47.404;18.836;2024-03-29T03:04:10;8.20;72.57
77693;SHT31;66984;47.404;18.836;2024-03-29T03:05:11;8.19;72.45
77693;SHT31;66984;47.404;18.836;2024-03-29T03:06:11;8.19;72.36
77693;SHT31;66984;47.404;18.836;2024-03-29T03:07:12;8.17;72.10
77693;SHT31;66984;47.404;18.836;2024-03-29T03:08:31;8.13;71.79
77693;SHT31;66984;47.404;18.836;2024-03-29T03:09:51;8.09;72.14
77693;SHT31;66984;47.404;18.836;2024-03-29T03:11:10;8.07;72.50
77693;SHT31;66984;47.404;18.836;2024-03-29T03:12:11;8.06;72.31
77693;SHT31;66984;47.404;18.836;2024-03-29T03:13:11;8.06;72.26
77693;SHT31;66984;47.404;18.836;2024-03-29T03:14:12;8.02;72.33
77693;SHT31;66984;47.404;18.836;2024-03-29T03:15:13;7.96;72.95
77693;SHT31;66984;47.404;18.836;2024-03-29T03:16:14;7.98;72.83
77693;SHT31;66984;47.404;18.836;2024-03-29T03:17:14;7.96;72.48
77693;SHT31;66984;47.404;18.836;2024-03-29T03:18:15;7.95;72.51
77693;SHT31;66984;47.404;18.836;2024-03-29T03:19:16;7.95;72.54
77693;SHT31;66984;47.404;18.836;2024-03-29T03:20:17;7.95;72.41
77693;SHT31;66984;47.404;18.836;2024-03-29T03:21:17;7.96;72.51
77693;SHT31;66984;47.404;18.836;2024-03-29T03:22:18;7.95;72.65
77693;SHT31;66984;47.404;18.836;2024-03-29T03:23:19;7.91;72.52
77693;SHT31;66984;47.404;18.836;2024-03-29T03:24:20;7.92;72.90
77693;SHT31;66984;47.404;18.836;2024-03-29T03:25:21;7.92;72.59
77693;SHT31;66984;47.404;18.836;2024-03-29T03:26:21;7.89;72.23
77693;SHT31;66984;47.404;18.836;2024-03-29T03:27:22;7.85;72.09
77693;SHT31;66984;47.404;18.836;2024-03-29T03:28:24;7.82;72.87
77693;SHT31;66984;47.404;18.836;2024-03-29T03:29:25;7.83;72.73
77693;SHT31;66984;47.404;18.836;2024-03-29T03:30:26;7.85;72.38
77693;SHT31;66984;47.404;18.836;2024-03-29T03:31:27;7.85;72.10
77693;SHT31;66984;47.404;18.836;2024-03-29T03:32:28;7.85;71.71
77693;SHT31;66984;47.404;18.836;2024-03-29T03:33:29;7.83;71.35
77693;SHT31;66984;47.404;18.836;2024-03-29T03:34:29;7.85;71.21
77693;SHT31;66984;47.404;18.836;2024-03-29T03:35:30;7.83;71.19
77693;SHT31;66984;47.404;18.836;2024-03-29T03:36:31;7.82;71.34
77693;SHT31;66984;47.404;18.836;2024-03-29T03:37:32;7.83;71.62
77693;SHT31;66984;47.404;18.836;2024-03-29T03:38:33;7.83;71.60
77693;SHT31;66984;47.404;18.836;2024-03-29T03:39:35;7.79;71.19
77693;SHT31;66984;47.404;18.836;2024-03-29T03:40:37;7.79;70.59
77693;SHT31;66984;47.404;18.836;2024-03-29T03:41:37;7.79;70.51
77693;SHT31;66984;47.404;18.836;2024-03-29T03:42:38;7.79;70.61
77693;SHT31;66984;47.404;18.836;2024-03-29T03:43:39;7.77;70.36
77693;SHT31;66984;47.404;18.836;2024-03-29T03:44:40;7.71;70.53
77693;SHT31;66984;47.404;18.836;2024-03-29T03:45:40;7.64;70.72
77693;SHT31;66984;47.404;18.836;2024-03-29T03:46:41;7.61;70.62
77693;SHT31;66984;47.404;18.836;2024-03-29T03:47:42;7.57;72.03
77693;SHT31;66984;47.404;18.836;2024-03-29T03:48:43;7.50;72.44
77693;SHT31;66984;47.404;18.836;2024-03-29T03:49:43;7.46;71.78
77693;SHT31;66984;47.404;18.836;2024-03-29T03:50:44;7.38;71.17
77693;SHT31;66984;47.404;18.836;2024-03-29T03:51:45;7.34;71.59
77693;SHT31;66984;47.404;18.836;2024-03-29T03:52:46;7.33;71.32
77693;SHT31;66984;47.404;18.836;2024-03-29T03:53:47;7.30;71.35
77693;SHT31;66984;47.404;18.836;2024-03-29T03:54:47;7.27;71.37
77693;SHT31;66984;47.404;18.836;2024-03-29T03:55:48;7.27;71.81
77693;SHT31;66984;47.404;18.836;2024-03-29T03:56:49;7.23;71.76
77693;SHT31;66984;47.404;18.836;2024-03-29T03:57:50;7.24;72.22
77693;SHT31;66984;47.404;18.836;2024-03-29T03:58:51;7.27;72.13
77693;SHT31;66984;47.404;18.836;2024-03-29T03:59:51;7.28;71.86
77693;SHT31;66984;47.404;18.836;2024-03-29T04:00:52;7.28;71.66
77693;SHT31;66984;47.404;18.836;2024-03-29T04:01:53;7.26;71.49
77693;SHT31;66984;47.404;18.836;2024-03-29T04:02:54;7.23;71.59
77693;SHT31;66984;47.404;18.836;2024-03-29T04:03:57;7.23;72.27
77693;SHT31;66984;47.404;18.836;2024-03-29T04:04:57;7.23;72.78
77693;SHT31;66984;47.404;18.836;2024-03-29T04:06:03;7.28;72.93
77693;SHT31;66984;47.404;18.836;2024-03-29T04:07:04;7.26;72.89
77693;SHT31;66984;47.404;18.836;2024-03-29T04:08:05;7.24;73.13
77693;SHT31;66984;47.404;18.836;2024-03-29T04:09:06;7.28;73.17
77693;SHT31;66984;47.404;18.836;2024-03-29T04:10:09;7.30;73.30
77693;SHT31;66984;47.404;18.836;2024-03-29T04:11:10;7.30;73.02
77693;SHT31;66984;47.404;18.836;2024-03-29T04:12:11;7.31;72.67
77693;SHT31;66984;47.404;18.836;2024-03-29T04:13:11;7.28;72.34
77693;SHT31;66984;47.404;18.836;2024-03-29T04:14:12;7.20;72.04
77693;SHT31;66984;47.404;18.836;2024-03-29T04:15:13;7.19;72.36
77693;SHT31;66984;47.404;18.836;2024-03-29T04:16:13;7.16;72.43
77693;SHT31;66984;47.404;18.836;2024-03-29T04:17:14;7.19;72.92
77693;SHT31;66984;47.404;18.836;2024-03-29T04:18:15;7.19;73.46
77693;SHT31;66984;47.404;18.836;2024-03-29T04:19:16;7.16;72.84
77693;SHT31;66984;47.404;18.836;2024-03-29T04:20:16;7.19;72.78
77693;SHT31;66984;47.404;18.836;2024-03-29T04:21:17;7.19;72.52
77693;SHT31;66984;47.404;18.836;2024-03-29T04:22:18;7.16;72.30
77693;SHT31;66984;47.404;18.836;2024-03-29T04:23:19;7.14;72.31
77693;SHT31;66984;47.404;18.836;2024-03-29T04:24:19;7.12;72.60
77693;SHT31;66984;47.404;18.836;2024-03-29T04:25:20;7.12;72.90
77693;SHT31;66984;47.404;18.836;2024-03-29T04:26:22;7.12;72.63
77693;SHT31;66984;47.404;18.836;2024-03-29T04:27:23;7.10;72.72
77693;SHT31;66984;47.404;18.836;2024-03-29T04:28:24;7.12;72.72
77693;SHT31;66984;47.404;18.836;2024-03-29T04:29:25;7.12;73.15
77693;SHT31;66984;47.404;18.836;2024-03-29T04:30:25;7.09;73.12
77693;SHT31;66984;47.404;18.836;2024-03-29T04:31:29;7.12;73.29
77693;SHT31;66984;47.404;18.836;2024-03-29T04:32:30;7.12;73.19
77693;SHT31;66984;47.404;18.836;2024-03-29T04:33:30;7.13;72.95
77693;SHT31;66984;47.404;18.836;2024-03-29T04:34:31;7.13;72.90
77693;SHT31;66984;47.404;18.836;2024-03-29T04:35:32;7.13;73.03
77693;SHT31;66984;47.404;18.836;2024-03-29T04:36:32;7.04;72.82
77693;SHT31;66984;47.404;18.836;2024-03-29T04:37:33;7.03;72.95
77693;SHT31;66984;47.404;18.836;2024-03-29T04:38:34;7.07;73.31
77693;SHT31;66984;47.404;18.836;2024-03-29T04:39:35;7.09;73.50
77693;SHT31;66984;47.404;18.836;2024-03-29T04:40:36;7.09;74.11
77693;SHT31;66984;47.404;18.836;2024-03-29T04:41:37;7.09;73.89
77693;SHT31;66984;47.404;18.836;2024-03-29T04:42:37;7.07;73.92
77693;SHT31;66984;47.404;18.836;2024-03-29T04:43:40;7.06;74.36
77693;SHT31;66984;47.404;18.836;2024-03-29T04:44:41;7.07;74.49
77693;SHT31;66984;47.404;18.836;2024-03-29T04:45:43;7.06;74.74
77693;SHT31;66984;47.404;18.836;2024-03-29T04:46:44;7.09;74.77
77693;SHT31;66984;47.404;18.836;2024-03-29T04:47:45;7.06;74.77
77693;SHT31;66984;47.404;18.836;2024-03-29T04:48:45;7.09;74.83
77693;SHT31;66984;47.404;18.836;2024-03-29T04:49:46;7.09;74.82
77693;SHT31;66984;47.404;18.836;2024-03-29T04:50:47;7.10;74.89
77693;SHT31;66984;47.404;18.836;2024-03-29T04:51:48;7.09;75.15
77693;SHT31;66984;47.404;18.836;2024-03-29T04:52:50;7.13;75.42
77693;SHT31;66984;47.404;18.836;2024-03-29T04:53:51;7.13;75.39
77693;SHT31;66984;47.404;18.836;2024-03-29T04:54:51;7.17;75.40
77693;SHT31;66984;47.404;18.836;2024-03-29T04:55:58;7.21;75.31
77693;SHT31;66984;47.404;18.836;2024-03-29T04:57:00;7.24;75.07
77693;SHT31;66984;47.404;18.836;2024-03-29T04:58:08;7.24;74.99
77693;SHT31;66984;47.404;18.836;2024-03-29T04:59:08;7.28;74.93
77693;SHT31;66984;47.404;18.836;2024-03-29T05:00:11;7.26;74.82
77693;SHT31;66984;47.404;18.836;2024-03-29T05:01:12;7.26;74.84
77693;SHT31;66984;47.404;18.836;2024-03-29T05:02:12;7.30;75.43
77693;SHT31;66984;47.404;18.836;2024-03-29T05:03:13;7.34;75.40
77693;SHT31;66984;47.404;18.836;2024-03-29T05:04:14;7.33;75.25
77693;SHT31;66984;47.404;18.836;2024-03-29T05:05:17;7.33;75.22
77693;SHT31;66984;47.404;18.836;2024-03-29T05:06:18;7.35;75.23
77693;SHT31;66984;47.404;18.836;2024-03-29T05:07:19;7.37;75.25
77693;SHT31;66984;47.404;18.836;2024-03-29T05:08:20;7.43;75.13
77693;SHT31;66984;47.404;18.836;2024-03-29T05:09:24;7.44;74.75
77693;SHT31;66984;47.404;18.836;2024-03-29T05:10:25;7.48;74.22
77693;SHT31;66984;47.404;18.836;2024-03-29T05:11:25;7.51;74.04
77693;SHT31;66984;47.404;18.836;2024-03-29T05:12:26;7.52;74.12
77693;SHT31;66984;47.404;18.836;2024-03-29T05:13:27;7.50;74.58
77693;SHT31;66984;47.404;18.836;2024-03-29T05:14:28;7.46;75.00
77693;SHT31;66984;47.404;18.836;2024-03-29T05:15:29;7.43;75.28
77693;SHT31;66984;47.404;18.836;2024-03-29T05:16:29;7.46;75.49
77693;SHT31;66984;47.404;18.836;2024-03-29T05:17:30;7.47;75.79
77693;SHT31;66984;47.404;18.836;2024-03-29T05:18:31;7.48;75.94
77693;SHT31;66984;47.404;18.836;2024-03-29T05:19:32;7.47;76.14
77693;SHT31;66984;47.404;18.836;2024-03-29T05:20:32;7.51;76.15
77693;SHT31;66984;47.404;18.836;2024-03-29T05:21:33;7.58;75.97
77693;SHT31;66984;47.404;18.836;2024-03-29T05:22:34;7.61;75.87
77693;SHT31;66984;47.404;18.836;2024-03-29T05:23:36;7.67;75.83
77693;SHT31;66984;47.404;18.836;2024-03-29T05:24:36;7.72;75.75
77693;SHT31;66984;47.404;18.836;2024-03-29T05:25:37;7.74;75.65
77693;SHT31;66984;47.404;18.836;2024-03-29T05:26:38;7.77;75.71
77693;SHT31;66984;47.404;18.836;2024-03-29T05:27:38;7.79;75.73
77693;SHT31;66984;47.404;18.836;2024-03-29T05:28:39;7.82;75.70
77693;SHT31;66984;47.404;18.836;2024-03-29T05:29:40;7.85;75.83
77693;SHT31;66984;47.404;18.836;2024-03-29T05:30:41;7.92;75.57
77693;SHT31;66984;47.404;18.836;2024-03-29T05:31:41;7.93;75.48
77693;SHT31;66984;47.404;18.836;2024-03-29T05:32:44;7.99;75.48
77693;SHT31;66984;47.404;18.836;2024-03-29T05:33:45;7.96;75.57
77693;SHT31;66984;47.404;18.836;2024-03-29T05:34:46;8.02;75.74
77693;SHT31;66984;47.404;18.836;2024-03-29T05:35:47;8.03;75.79
77693;SHT31;66984;47.404;18.836;2024-03-29T05:36:48;8.07;75.74
77693;SHT31;66984;47.404;18.836;2024-03-29T05:37:48;8.07;75.78
77693;SHT31;66984;47.404;18.836;2024-03-29T05:38:51;8.09;75.95
77693;SHT31;66984;47.404;18.836;2024-03-29T05:39:53;8.12;75.89
77693;SHT31;66984;47.404;18.836;2024-03-29T05:40:59;8.16;75.69
77693;SHT31;66984;47.404;18.836;2024-03-29T05:42:00;8.12;75.93
77693;SHT31;66984;47.404;18.836;2024-03-29T05:43:01;8.13;76.02
77693;SHT31;66984;47.404;18.836;2024-03-29T05:44:03;8.09;76.33
77693;SHT31;66984;47.404;18.836;2024-03-29T05:45:04;8.12;76.35
77693;SHT31;66984;47.404;18.836;2024-03-29T05:46:06;8.14;76.39
77693;SHT31;66984;47.404;18.836;2024-03-29T05:47:06;8.13;76.49
77693;SHT31;66984;47.404;18.836;2024-03-29T05:48:07;8.10;76.55
77693;SHT31;66984;47.404;18.836;2024-03-29T05:49:08;8.09;76.66
77693;SHT31;66984;47.404;18.836;2024-03-29T05:50:09;8.10;76.46
77693;SHT31;66984;47.404;18.836;2024-03-29T05:51:09;8.07;76.82
77693;SHT31;66984;47.404;18.836;2024-03-29T05:52:10;8.10;76.69
77693;SHT31;66984;47.404;18.836;2024-03-29T05:53:14;8.13;76.55
77693;SHT31;66984;47.404;18.836;2024-03-29T05:54:14;8.14;76.92
77693;SHT31;66984;47.404;18.836;2024-03-29T05:55:15;8.14;76.88
77693;SHT31;66984;47.404;18.836;2024-03-29T05:56:16;8.17;76.71
77693;SHT31;66984;47.404;18.836;2024-03-29T05:57:17;8.23;76.68
77693;SHT31;66984;47.404;18.836;2024-03-29T05:58:17;8.26;76.48
77693;SHT31;66984;47.404;18.836;2024-03-29T05:59:19;8.33;76.66
77693;SHT31;66984;47.404;18.836;2024-03-29T06:00:20;8.40;76.44
77693;SHT31;66984;47.404;18.836;2024-03-29T06:01:21;8.47;76.25
77693;SHT31;66984;47.404;18.836;2024-03-29T06:02:23;8.53;76.00
77693;SHT31;66984;47.404;18.836;2024-03-29T06:03:24;8.57;76.06
77693;SHT31;66984;47.404;18.836;2024-03-29T06:04:24;8.61;75.76
77693;SHT31;66984;47.404;18.836;2024-03-29T06:05:32;8.67;75.39
77693;SHT31;66984;47.404;18.836;2024-03-29T06:06:33;8.71;75.20
77693;SHT31;66984;47.404;18.836;2024-03-29T06:07:34;8.75;75.15
77693;SHT31;66984;47.404;18.836;2024-03-29T06:08:36;8.81;75.27
77693;SHT31;66984;47.404;18.836;2024-03-29T06:09:39;8.88;75.50
77693;SHT31;66984;47.404;18.836;2024-03-29T06:10:39;8.92;75.32
77693;SHT31;66984;47.404;18.836;2024-03-29T06:11:40;8.98;75.26
77693;SHT31;66984;47.404;18.836;2024-03-29T06:12:42;9.01;74.96
77693;SHT31;66984;47.404;18.836;2024-03-29T06:13:43;9.05;74.71
77693;SHT31;66984;47.404;18.836;2024-03-29T06:14:59;9.09;74.34
77693;SHT31;66984;47.404;18.836;2024-03-29T06:16:19;9.09;74.37
77693;SHT31;66984;47.404;18.836;2024-03-29T06:17:38;9.18;74.38
77693;SHT31;66984;47.404;18.836;2024-03-29T06:18:38;9.22;74.21
77693;SHT31;66984;47.404;18.836;2024-03-29T06:19:39;9.25;74.28
77693;SHT31;66984;47.404;18.836;2024-03-29T06:20:40;9.30;74.43
77693;SHT31;66984;47.404;18.836;2024-03-29T06:21:40;9.36;74.33
77693;SHT31;66984;47.404;18.836;2024-03-29T06:22:43;9.44;74.25
77693;SHT31;66984;47.404;18.836;2024-03-29T06:23:44;9.47;73.86
77693;SHT31;66984;47.404;18.836;2024-03-29T06:24:44;9.51;74.04
77693;SHT31;66984;47.404;18.836;2024-03-29T06:25:45;9.50;73.64
77693;SHT31;66984;47.404;18.836;2024-03-29T06:26:46;9.57;73.79